sensor_id;sensor_type;location;lat;lon;timestamp;temperature;humidity
19829;DHT22;10075;50.924;4.396;2022-11-14T00:01:13;6.90;99.90
19829;DHT22;10075;50.924;4.396;2022-11-14T00:03:40;6.80;99.90
19829;DHT22;10075;50.924;4.396;2022-11-14T00:06:07;6.80;99.90
19829;DHT22;10075;50.924;4.396;2022-11-14T00:08:36;6.70;99.90
19829;DHT22;10075;50.924;4.396;2022-11-14T00:11:03;6.70;99.90
19829;DHT22;10075;50.924;4.396;2022-11-14T00:13:30;6.60;99.90
19829;DHT22;10075;50.924;4.396;2022-11-14T00:15:57;6.70;99.90
19829;DHT22;10075;50.924;4.396;2022-11-14T00:18:24;6.60;99.90
19829;DHT22;10075;50.924;4.396;2022-11-14T00:20:52;6.60;99.90
19829;DHT22;10075;50.924;4.396;2022-11-14T00:23:19;6.60;99.90
19829;DHT22;10075;50.924;4.396;2022-11-14T00:25:48;6.60;99.90
19829;DHT22;10075;50.924;4.396;2022-11-14T00:28:15;6.60;99.90
19829;DHT22;10075;50.924;4.396;2022-11-14T00:30:45;6.50;99.90
19829;DHT22;10075;50.924;4.396;2022-11-14T00:33:13;6.50;99.90
19829;DHT22;10075;50.924;4.396;2022-11-14T00:35:40;6.40;99.90
19829;DHT22;10075;50.924;4.396;2022-11-14T00:38:06;6.30;99.90
19829;DHT22;10075;50.924;4.396;2022-11-14T00:40:33;6.30;99.90
19829;DHT22;10075;50.924;4.396;2022-11-14T00:43:02;6.20;99.90
19829;DHT22;10075;50.924;4.396;2022-11-14T00:45:29;6.20;99.90
19829;DHT22;10075;50.924;4.396;2022-11-14T00:47:56;6.10;99.90
19829;DHT22;10075;50.924;4.396;2022-11-14T00:50:22;6.10;99.90
19829;DHT22;10075;50.924;4.396;2022-11-14T00:52:49;6.10;99.90
19829;DHT22;10075;50.924;4.396;2022-11-14T00:55:16;6.10;99.90
19829;DHT22;10075;50.924;4.396;2022-11-14T00:57:43;6.10;99.90
19829;DHT22;10075;50.924;4.396;2022-11-14T01:00:14;6.00;99.90
19829;DHT22;10075;50.924;4.396;2022-11-14T01:02:41;6.00;99.90
19829;DHT22;10075;50.924;4.396;2022-11-14T01:05:08;6.00;99.90
19829;DHT22;10075;50.924;4.396;2022-11-14T01:07:35;6.00;99.90
19829;DHT22;10075;50.924;4.396;2022-11-14T01:10:02;6.00;99.90
19829;DHT22;10075;50.924;4.396;2022-11-14T01:12:29;6.10;99.90
19829;DHT22;10075;50.924;4.396;2022-11-14T01:14:56;6.00;99.90
19829;DHT22;10075;50.924;4.396;2022-11-14T01:17:25;6.00;99.90
19829;DHT22;10075;50.924;4.396;2022-11-14T01:19:53;6.00;99.90
19829;DHT22;10075;50.924;4.396;2022-11-14T01:22:20;6.00;99.90
19829;DHT22;10075;50.924;4.396;2022-11-14T01:24:47;5.90;99.90
19829;DHT22;10075;50.924;4.396;2022-11-14T01:27:14;5.90;99.90
19829;DHT22;10075;50.924;4.396;2022-11-14T01:29:40;5.80;99.90
19829;DHT22;10075;50.924;4.396;2022-11-14T01:32:07;5.80;99.90
19829;DHT22;10075;50.924;4.396;2022-11-14T01:34:36;5.80;99.90
19829;DHT22;10075;50.924;4.396;2022-11-14T01:37:03;5.70;99.90
19829;DHT22;10075;50.924;4.396;2022-11-14T01:39:30;5.70;99.90
19829;DHT22;10075;50.924;4.396;2022-11-14T01:41:57;5.70;99.90
19829;DHT22;10075;50.924;4.396;2022-11-14T01:44:45;5.60;99.90
19829;DHT22;10075;50.924;4.396;2022-11-14T01:47:15;5.60;99.90
19829;DHT22;10075;50.924;4.396;2022-11-14T01:49:46;5.60;99.90
19829;DHT22;10075;50.924;4.396;2022-11-14T01:52:16;5.60;99.90
19829;DHT22;10075;50.924;4.396;2022-11-14T01:54:47;5.60;99.90
19829;DHT22;10075;50.924;4.396;2022-11-14T01:57:18;5.60;99.90
19829;DHT22;10075;50.924;4.396;2022-11-14T01:59:50;5.50;99.90
19829;DHT22;10075;50.924;4.396;2022-11-14T02:02:19;5.50;99.90
19829;DHT22;10075;50.924;4.396;2022-11-14T02:04:52;5.50;99.90
19829;DHT22;10075;50.924;4.396;2022-11-14T02:07:22;5.50;99.90
19829;DHT22;10075;50.924;4.396;2022-11-14T02:09:50;5.40;99.90
19829;DHT22;10075;50.924;4.396;2022-11-14T02:12:18;5.40;99.90
19829;DHT22;10075;50.924;4.396;2022-11-14T02:14:47;5.40;99.90
19829;DHT22;10075;50.924;4.396;2022-11-14T02:17:16;5.40;99.90
19829;DHT22;10075;50.924;4.396;2022-11-14T02:19:45;5.40;99.90
19829;DHT22;10075;50.924;4.396;2022-11-14T02:22:14;5.40;99.90
19829;DHT22;10075;50.924;4.396;2022-11-14T02:24:42;5.30;99.90
19829;DHT22;10075;50.924;4.396;2022-11-14T02:27:09;5.30;99.90
19829;DHT22;10075;50.924;4.396;2022-11-14T02:29:37;5.30;99.90
19829;DHT22;10075;50.924;4.396;2022-11-14T02:32:04;5.30;99.90
19829;DHT22;10075;50.924;4.396;2022-11-14T02:34:31;5.40;99.90
19829;DHT22;10075;50.924;4.396;2022-11-14T02:36:59;5.30;99.90
19829;DHT22;10075;50.924;4.396;2022-11-14T02:39:27;5.30;99.90
19829;DHT22;10075;50.924;4.396;2022-11-14T02:41:54;5.40;99.90
19829;DHT22;10075;50.924;4.396;2022-11-14T02:44:21;5.40;99.90
19829;DHT22;10075;50.924;4.396;2022-11-14T02:46:48;5.40;99.90
19829;DHT22;10075;50.924;4.396;2022-11-14T02:49:15;5.40;99.90
19829;DHT22;10075;50.924;4.396;2022-11-14T02:51:42;5.30;99.90
19829;DHT22;10075;50.924;4.396;2022-11-14T02:54:09;5.30;99.90
19829;DHT22;10075;50.924;4.396;2022-11-14T02:56:38;5.20;99.90
19829;DHT22;10075;50.924;4.396;2022-11-14T02:59:05;5.20;99.90
19829;DHT22;10075;50.924;4.396;2022-11-14T03:01:32;5.10;99.90
19829;DHT22;10075;50.924;4.396;2022-11-14T03:03:59;5.10;99.90
19829;DHT22;10075;50.924;4.396;2022-11-14T03:06:25;5.10;99.90
19829;DHT22;10075;50.924;4.396;2022-11-14T03:08:52;5.00;99.90
19829;DHT22;10075;50.924;4.396;2022-11-14T03:11:19;5.00;99.90
19829;DHT22;10075;50.924;4.396;2022-11-14T03:13:48;5.00;99.90
19829;DHT22;10075;50.924;4.396;2022-11-14T03:16:15;5.00;99.90
19829;DHT22;10075;50.924;4.396;2022-11-14T03:18:42;5.00;99.90
19829;DHT22;10075;50.924;4.396;2022-11-14T03:21:10;4.90;99.90
19829;DHT22;10075;50.924;4.396;2022-11-14T03:23:37;4.90;99.90
19829;DHT22;10075;50.924;4.396;2022-11-14T03:26:06;4.90;99.90
19829;DHT22;10075;50.924;4.396;2022-11-14T03:28:33;5.00;99.90
19829;DHT22;10075;50.924;4.396;2022-11-14T03:31:02;5.10;99.90
19829;DHT22;10075;50.924;4.396;2022-11-14T03:33:29;5.10;99.90
19829;DHT22;10075;50.924;4.396;2022-11-14T03:35:56;5.10;99.90
19829;DHT22;10075;50.924;4.396;2022-11-14T03:38:23;5.00;99.90
19829;DHT22;10075;50.924;4.396;2022-11-14T03:40:51;5.00;99.90
19829;DHT22;10075;50.924;4.396;2022-11-14T03:43:19;4.90;99.90
19829;DHT22;10075;50.924;4.396;2022-11-14T03:45:46;4.90;99.90
19829;DHT22;10075;50.924;4.396;2022-11-14T03:48:15;4.90;99.90
19829;DHT22;10075;50.924;4.396;2022-11-14T03:50:42;5.00;99.90
19829;DHT22;10075;50.924;4.396;2022-11-14T03:53:09;4.90;99.90
19829;DHT22;10075;50.924;4.396;2022-11-14T03:55:37;4.90;99.90
19829;DHT22;10075;50.924;4.396;2022-11-14T03:58:04;4.90;99.90
19829;DHT22;10075;50.924;4.396;2022-11-14T04:00:31;4.90;99.90
19829;DHT22;10075;50.924;4.396;2022-11-14T04:02:59;4.90;99.90
19829;DHT22;10075;50.924;4.396;2022-11-14T04:05:28;4.80;99.90
19829;DHT22;10075;50.924;4.396;2022-11-14T04:07:54;4.80;99.90
19829;DHT22;10075;50.924;4.396;2022-11-14T04:10:21;4.80;99.90
19829;DHT22;10075;50.924;4.396;2022-11-14T04:12:50;4.70;99.90
19829;DHT22;10075;50.924;4.396;2022-11-14T04:15:17;4.70;99.90
19829;DHT22;10075;50.924;4.396;2022-11-14T04:17:45;4.70;99.90
19829;DHT22;10075;50.924;4.396;2022-11-14T04:20:13;4.70;99.90
19829;DHT22;10075;50.924;4.396;2022-11-14T04:22:41;4.70;99.90
19829;DHT22;10075;50.924;4.396;2022-11-14T04:25:09;4.70;99.90
19829;DHT22;10075;50.924;4.396;2022-11-14T04:27:36;4.70;99.90
19829;DHT22;10075;50.924;4.396;2022-11-14T04:30:04;4.70;99.90
19829;DHT22;10075;50.924;4.396;2022-11-14T04:32:31;4.70;99.90
19829;DHT22;10075;50.924;4.396;2022-11-14T04:34:58;4.70;99.90
19829;DHT22;10075;50.924;4.396;2022-11-14T04:37:25;4.70;99.90
19829;DHT22;10075;50.924;4.396;2022-11-14T04:39:53;4.70;99.90
19829;DHT22;10075;50.924;4.396;2022-11-14T04:42:23;4.70;99.90
19829;DHT22;10075;50.924;4.396;2022-11-14T04:44:50;4.70;99.90
19829;DHT22;10075;50.924;4.396;2022-11-14T04:47:17;4.80;99.90
19829;DHT22;10075;50.924;4.396;2022-11-14T04:49:44;4.80;99.90
19829;DHT22;10075;50.924;4.396;2022-11-14T04:52:11;4.80;99.90
19829;DHT22;10075;50.924;4.396;2022-11-14T04:54:38;4.90;99.90
19829;DHT22;10075;50.924;4.396;2022-11-14T04:57:06;4.80;99.90
19829;DHT22;10075;50.924;4.396;2022-11-14T04:59:33;4.80;99.90
19829;DHT22;10075;50.924;4.396;2022-11-14T05:02:00;4.70;99.90
19829;DHT22;10075;50.924;4.396;2022-11-14T05:04:27;4.60;99.90
19829;DHT22;10075;50.924;4.396;2022-11-14T05:06:54;4.60;99.90
19829;DHT22;10075;50.924;4.396;2022-11-14T05:09:21;4.40;99.90
19829;DHT22;10075;50.924;4.396;2022-11-14T05:11:48;4.40;99.90
19829;DHT22;10075;50.924;4.396;2022-11-14T05:14:17;4.30;99.90
19829;DHT22;10075;50.924;4.396;2022-11-14T05:16:44;4.30;99.90
19829;DHT22;10075;50.924;4.396;2022-11-14T05:19:10;4.30;99.90
19829;DHT22;10075;50.924;4.396;2022-11-14T05:21:38;4.30;99.90
19829;DHT22;10075;50.924;4.396;2022-11-14T05:24:05;4.30;99.90
19829;DHT22;10075;50.924;4.396;2022-11-14T05:26:32;4.30;99.90
19829;DHT22;10075;50.924;4.396;2022-11-14T05:28:59;4.30;99.90
19829;DHT22;10075;50.924;4.396;2022-11-14T05:31:27;4.30;99.90
19829;DHT22;10075;50.924;4.396;2022-11-14T05:33:54;4.40;99.90
19829;DHT22;10075;50.924;4.396;2022-11-14T05:36:21;4.30;99.90
19829;DHT22;10075;50.924;4.396;2022-11-14T05:38:48;4.30;99.90
19829;DHT22;10075;50.924;4.396;2022-11-14T05:41:17;4.20;99.90
19829;DHT22;10075;50.924;4.396;2022-11-14T05:43:45;4.20;99.90
19829;DHT22;10075;50.924;4.396;2022-11-14T05:46:13;4.20;99.90
19829;DHT22;10075;50.924;4.396;2022-11-14T05:48:42;4.20;99.90
19829;DHT22;10075;50.924;4.396;2022-11-14T05:51:11;4.20;99.90
19829;DHT22;10075;50.924;4.396;2022-11-14T05:53:38;4.20;99.90
19829;DHT22;10075;50.924;4.396;2022-11-14T05:56:10;4.20;99.90
19829;DHT22;10075;50.924;4.396;2022-11-14T05:58:38;4.30;99.90
19829;DHT22;10075;50.924;4.396;2022-11-14T06:01:07;4.30;99.90
19829;DHT22;10075;50.924;4.396;2022-11-14T06:03:35;4.30;99.90
19829;DHT22;10075;50.924;4.396;2022-11-14T06:06:07;4.30;99.90
19829;DHT22;10075;50.924;4.396;2022-11-14T06:08:35;4.30;99.90
19829;DHT22;10075;50.924;4.396;2022-11-14T06:11:03;4.20;99.90
19829;DHT22;10075;50.924;4.396;2022-11-14T06:13:31;4.20;99.90
19829;DHT22;10075;50.924;4.396;2022-11-14T06:15:59;4.20;99.90
19829;DHT22;10075;50.924;4.396;2022-11-14T06:18:26;4.20;99.90
19829;DHT22;10075;50.924;4.396;2022-11-14T06:20:57;4.20;99.90
19829;DHT22;10075;50.924;4.396;2022-11-14T06:23:25;4.30;99.90
19829;DHT22;10075;50.924;4.396;2022-11-14T06:25:57;4.30;99.90
19829;DHT22;10075;50.924;4.396;2022-11-14T06:28:24;4.30;99.90
19829;DHT22;10075;50.924;4.396;2022-11-14T06:30:51;4.30;99.90
19829;DHT22;10075;50.924;4.396;2022-11-14T06:33:18;4.20;99.90
19829;DHT22;10075;50.924;4.396;2022-11-14T06:35:44;4.20;99.90
19829;DHT22;10075;50.924;4.396;2022-11-14T06:38:11;4.20;99.90
19829;DHT22;10075;50.924;4.396;2022-11-14T06:40:40;4.20;99.90
19829;DHT22;10075;50.924;4.396;2022-11-14T06:43:07;4.20;99.90
19829;DHT22;10075;50.924;4.396;2022-11-14T06:45:34;4.20;99.90
19829;DHT22;10075;50.924;4.396;2022-11-14T06:48:00;4.20;99.90
19829;DHT22;10075;50.924;4.396;2022-11-14T06:50:27;4.20;99.90
19829;DHT22;10075;50.924;4.396;2022-11-14T06:52:56;4.20;99.90
19829;DHT22;10075;50.924;4.396;2022-11-14T06:55:23;4.20;99.90
19829;DHT22;10075;50.924;4.396;2022-11-14T06:57:53;4.10;99.90
19829;DHT22;10075;50.924;4.396;2022-11-14T07:00:20;4.10;99.90
19829;DHT22;10075;50.924;4.396;2022-11-14T07:02:48;4.20;99.90
19829;DHT22;10075;50.924;4.396;2022-11-14T07:05:15;4.20;99.90
19829;DHT22;10075;50.924;4.396;2022-11-14T07:07:42;4.30;99.90
19829;DHT22;10075;50.924;4.396;2022-11-14T07:10:09;4.40;99.90
19829;DHT22;10075;50.924;4.396;2022-11-14T07:12:36;4.40;99.90
19829;DHT22;10075;50.924;4.396;2022-11-14T07:15:06;4.40;99.90
19829;DHT22;10075;50.924;4.396;2022-11-14T07:17:33;4.40;99.90
19829;DHT22;10075;50.924;4.396;2022-11-14T07:20:02;4.40;99.90
19829;DHT22;10075;50.924;4.396;2022-11-14T07:22:29;4.40;99.90
19829;DHT22;10075;50.924;4.396;2022-11-14T07:24:56;4.50;99.90
19829;DHT22;10075;50.924;4.396;2022-11-14T07:27:23;4.40;99.90
19829;DHT22;10075;50.924;4.396;2022-11-14T07:29:50;4.40;99.90
19829;DHT22;10075;50.924;4.396;2022-11-14T07:32:18;4.40;99.90
19829;DHT22;10075;50.924;4.396;2022-11-14T07:34:45;4.50;99.90
19829;DHT22;10075;50.924;4.396;2022-11-14T07:37:12;4.50;99.90
19829;DHT22;10075;50.924;4.396;2022-11-14T07:39:39;4.50;99.90
19829;DHT22;10075;50.924;4.396;2022-11-14T07:42:06;4.60;99.90
19829;DHT22;10075;50.924;4.396;2022-11-14T07:44:33;4.60;99.90
19829;DHT22;10075;50.924;4.396;2022-11-14T07:47:00;4.70;99.90
19829;DHT22;10075;50.924;4.396;2022-11-14T07:49:28;4.70;99.90
19829;DHT22;10075;50.924;4.396;2022-11-14T07:51:55;4.70;99.90
19829;DHT22;10075;50.924;4.396;2022-11-14T07:54:22;4.80;99.90
19829;DHT22;10075;50.924;4.396;2022-11-14T07:56:49;4.80;99.90
19829;DHT22;10075;50.924;4.396;2022-11-14T07:59:16;4.80;99.90
19829;DHT22;10075;50.924;4.396;2022-11-14T08:01:43;4.80;99.90
19829;DHT22;10075;50.924;4.396;2022-11-14T08:04:10;4.90;99.90
19829;DHT22;10075;50.924;4.396;2022-11-14T08:06:38;5.00;99.90
19829;DHT22;10075;50.924;4.396;2022-11-14T08:09:05;5.00;99.90
19829;DHT22;10075;50.924;4.396;2022-11-14T08:11:32;5.10;99.90
19829;DHT22;10075;50.924;4.396;2022-11-14T08:14:22;5.20;99.90
19829;DHT22;10075;50.924;4.396;2022-11-14T08:16:49;5.30;99.90
19829;DHT22;10075;50.924;4.396;2022-11-14T08:19:16;5.30;99.90
19829;DHT22;10075;50.924;4.396;2022-11-14T08:21:45;5.40;99.90
19829;DHT22;10075;50.924;4.396;2022-11-14T08:24:12;5.50;99.90
19829;DHT22;10075;50.924;4.396;2022-11-14T08:26:39;5.60;99.90
19829;DHT22;10075;50.924;4.396;2022-11-14T08:29:06;5.70;99.90
19829;DHT22;10075;50.924;4.396;2022-11-14T08:31:33;5.70;99.90
19829;DHT22;10075;50.924;4.396;2022-11-14T08:34:00;5.80;99.90
19829;DHT22;10075;50.924;4.396;2022-11-14T08:36:27;5.90;99.90
19829;DHT22;10075;50.924;4.396;2022-11-14T08:38:55;6.00;99.90
19829;DHT22;10075;50.924;4.396;2022-11-14T08:41:22;6.10;99.90
19829;DHT22;10075;50.924;4.396;2022-11-14T08:43:49;6.20;99.90
19829;DHT22;10075;50.924;4.396;2022-11-14T08:46:16;6.30;99.90
19829;DHT22;10075;50.924;4.396;2022-11-14T08:48:43;6.40;99.90
19829;DHT22;10075;50.924;4.396;2022-11-14T08:51:10;6.40;99.90
19829;DHT22;10075;50.924;4.396;2022-11-14T08:53:37;6.60;99.90
19829;DHT22;10075;50.924;4.396;2022-11-14T08:56:07;6.70;99.90
19829;DHT22;10075;50.924;4.396;2022-11-14T08:58:34;6.80;99.90
19829;DHT22;10075;50.924;4.396;2022-11-14T09:01:01;6.90;99.90
19829;DHT22;10075;50.924;4.396;2022-11-14T09:03:29;6.90;99.90
19829;DHT22;10075;50.924;4.396;2022-11-14T09:05:56;7.00;99.90
19829;DHT22;10075;50.924;4.396;2022-11-14T09:08:24;7.00;99.90
19829;DHT22;10075;50.924;4.396;2022-11-14T09:10:51;7.20;99.90
19829;DHT22;10075;50.924;4.396;2022-11-14T09:13:20;7.20;99.90
19829;DHT22;10075;50.924;4.396;2022-11-14T09:15:47;7.30;99.90
19829;DHT22;10075;50.924;4.396;2022-11-14T09:18:14;7.50;99.90
19829;DHT22;10075;50.924;4.396;2022-11-14T09:20:41;7.60;99.90
19829;DHT22;10075;50.924;4.396;2022-11-14T09:23:08;7.70;99.90
19829;DHT22;10075;50.924;4.396;2022-11-14T09:25:36;7.70;99.90
19829;DHT22;10075;50.924;4.396;2022-11-14T09:28:04;7.80;99.90
19829;DHT22;10075;50.924;4.396;2022-11-14T09:30:33;7.80;99.90
19829;DHT22;10075;50.924;4.396;2022-11-14T09:33:01;7.90;99.90
19829;DHT22;10075;50.924;4.396;2022-11-14T09:35:29;8.10;99.90
19829;DHT22;10075;50.924;4.396;2022-11-14T09:38:00;8.20;99.90
19829;DHT22;10075;50.924;4.396;2022-11-14T09:40:27;8.30;99.90
19829;DHT22;10075;50.924;4.396;2022-11-14T09:43:08;8.30;99.90
19829;DHT22;10075;50.924;4.396;2022-11-14T09:45:47;8.30;99.90
19829;DHT22;10075;50.924;4.396;2022-11-14T09:48:17;8.40;99.90
19829;DHT22;10075;50.924;4.396;2022-11-14T09:50:49;8.40;99.90
19829;DHT22;10075;50.924;4.396;2022-11-14T09:53:22;8.40;99.90
19829;DHT22;10075;50.924;4.396;2022-11-14T09:55:53;8.40;99.90
19829;DHT22;10075;50.924;4.396;2022-11-14T09:58:21;8.50;99.90
19829;DHT22;10075;50.924;4.396;2022-11-14T10:00:53;8.60;99.90
19829;DHT22;10075;50.924;4.396;2022-11-14T10:03:27;8.70;99.90
19829;DHT22;10075;50.924;4.396;2022-11-14T10:06:19;8.80;99.90
19829;DHT22;10075;50.924;4.396;2022-11-14T10:09:15;8.80;99.90
19829;DHT22;10075;50.924;4.396;2022-11-14T10:11:53;8.80;99.90
19829;DHT22;10075;50.924;4.396;2022-11-14T10:14:52;8.80;99.90
19829;DHT22;10075;50.924;4.396;2022-11-14T10:20:25;9.10;99.90
19829;DHT22;10075;50.924;4.396;2022-11-14T10:23:09;9.20;99.90
19829;DHT22;10075;50.924;4.396;2022-11-14T10:25:45;9.40;99.90
19829;DHT22;10075;50.924;4.396;2022-11-14T10:28:29;9.60;99.90
19829;DHT22;10075;50.924;4.396;2022-11-14T10:31:05;9.70;99.90
19829;DHT22;10075;50.924;4.396;2022-11-14T10:33:45;9.70;99.90
19829;DHT22;10075;50.924;4.396;2022-11-14T10:36:19;9.60;99.90
19829;DHT22;10075;50.924;4.396;2022-11-14T10:38:53;9.70;99.90
19829;DHT22;10075;50.924;4.396;2022-11-14T10:41:23;9.70;99.90
19829;DHT22;10075;50.924;4.396;2022-11-14T10:43:51;9.70;99.90
19829;DHT22;10075;50.924;4.396;2022-11-14T10:46:21;9.80;99.90
19829;DHT22;10075;50.924;4.396;2022-11-14T10:48:52;10.00;99.90
19829;DHT22;10075;50.924;4.396;2022-11-14T10:51:23;10.10;99.90
19829;DHT22;10075;50.924;4.396;2022-11-14T10:53:54;10.10;99.90
19829;DHT22;10075;50.924;4.396;2022-11-14T10:56:23;10.00;99.90
19829;DHT22;10075;50.924;4.396;2022-11-14T10:58:50;10.00;99.90
19829;DHT22;10075;50.924;4.396;2022-11-14T11:01:36;10.20;99.90
19829;DHT22;10075;50.924;4.396;2022-11-14T11:04:24;10.20;99.90
19829;DHT22;10075;50.924;4.396;2022-11-14T11:06:55;10.30;99.90
19829;DHT22;10075;50.924;4.396;2022-11-14T11:09:24;10.30;99.90
19829;DHT22;10075;50.924;4.396;2022-11-14T11:12:16;10.30;99.90
19829;DHT22;10075;50.924;4.396;2022-11-14T11:14:44;10.30;99.90
19829;DHT22;10075;50.924;4.396;2022-11-14T11:17:24;10.40;99.90
19829;DHT22;10075;50.924;4.396;2022-11-14T11:23:01;10.40;99.90
19829;DHT22;10075;50.924;4.396;2022-11-14T11:25:30;10.50;99.90
19829;DHT22;10075;50.924;4.396;2022-11-14T11:28:10;10.50;99.90
19829;DHT22;10075;50.924;4.396;2022-11-14T11:30:38;10.40;99.90
19829;DHT22;10075;50.924;4.396;2022-11-14T11:33:21;10.50;99.90
19829;DHT22;10075;50.924;4.396;2022-11-14T11:35:49;10.70;99.90
19829;DHT22;10075;50.924;4.396;2022-11-14T11:38:21;10.70;99.90
19829;DHT22;10075;50.924;4.396;2022-11-14T11:40:51;10.90;99.90
19829;DHT22;10075;50.924;4.396;2022-11-14T11:43:26;11.00;99.90
19829;DHT22;10075;50.924;4.396;2022-11-14T11:45:58;11.00;99.90
19829;DHT22;10075;50.924;4.396;2022-11-14T11:48:33;10.80;99.90
19829;DHT22;10075;50.924;4.396;2022-11-14T11:51:04;10.90;99.90
19829;DHT22;10075;50.924;4.396;2022-11-14T11:53:36;10.90;99.90
19829;DHT22;10075;50.924;4.396;2022-11-14T11:56:08;11.00;99.90
19829;DHT22;10075;50.924;4.396;2022-11-14T11:58:42;10.80;99.90
19829;DHT22;10075;50.924;4.396;2022-11-14T12:01:11;10.80;99.90
19829;DHT22;10075;50.924;4.396;2022-11-14T12:03:38;10.90;99.90
19829;DHT22;10075;50.924;4.396;2022-11-14T12:06:13;11.00;99.90
19829;DHT22;10075;50.924;4.396;2022-11-14T12:08:52;11.00;99.90
19829;DHT22;10075;50.924;4.396;2022-11-14T12:11:26;10.90;99.90
19829;DHT22;10075;50.924;4.396;2022-11-14T12:14:24;10.80;99.90
19829;DHT22;10075;50.924;4.396;2022-11-14T12:17:11;10.80;99.90
19829;DHT22;10075;50.924;4.396;2022-11-14T12:19:51;10.80;99.90
19829;DHT22;10075;50.924;4.396;2022-11-14T12:22:47;10.80;99.90
19829;DHT22;10075;50.924;4.396;2022-11-14T12:25:40;10.90;99.90
19829;DHT22;10075;50.924;4.396;2022-11-14T12:28:17;10.90;99.90
19829;DHT22;10075;50.924;4.396;2022-11-14T12:30:50;11.00;99.90
19829;DHT22;10075;50.924;4.396;2022-11-14T12:33:21;11.20;99.90
19829;DHT22;10075;50.924;4.396;2022-11-14T12:35:51;11.10;99.90
19829;DHT22;10075;50.924;4.396;2022-11-14T12:38:20;11.10;99.90
19829;DHT22;10075;50.924;4.396;2022-11-14T12:40:54;11.20;99.90
19829;DHT22;10075;50.924;4.396;2022-11-14T12:43:33;11.20;99.90
19829;DHT22;10075;50.924;4.396;2022-11-14T12:46:03;11.10;99.90
19829;DHT22;10075;50.924;4.396;2022-11-14T12:48:35;11.00;99.90
19829;DHT22;10075;50.924;4.396;2022-11-14T12:51:04;11.00;99.90
19829;DHT22;10075;50.924;4.396;2022-11-14T12:53:44;10.90;99.90
19829;DHT22;10075;50.924;4.396;2022-11-14T13:02:37;10.80;99.90
19829;DHT22;10075;50.924;4.396;2022-11-14T13:05:27;10.70;99.90
19829;DHT22;10075;50.924;4.396;2022-11-14T13:08:08;10.70;99.90
19829;DHT22;10075;50.924;4.396;2022-11-14T13:10:41;10.50;99.90
19829;DHT22;10075;50.924;4.396;2022-11-14T13:13:10;10.40;99.90
19829;DHT22;10075;50.924;4.396;2022-11-14T13:15:57;10.30;99.90
19829;DHT22;10075;50.924;4.396;2022-11-14T13:18:52;10.30;99.90
19829;DHT22;10075;50.924;4.396;2022-11-14T13:21:38;10.30;99.90
19829;DHT22;10075;50.924;4.396;2022-11-14T13:24:25;10.30;99.90
19829;DHT22;10075;50.924;4.396;2022-11-14T13:26:53;10.20;99.90
19829;DHT22;10075;50.924;4.396;2022-11-14T13:29:46;10.10;99.90
19829;DHT22;10075;50.924;4.396;2022-11-14T13:35:13;10.20;99.90
19829;DHT22;10075;50.924;4.396;2022-11-14T13:38:02;10.30;99.90
19829;DHT22;10075;50.924;4.396;2022-11-14T13:40:37;10.30;99.90
19829;DHT22;10075;50.924;4.396;2022-11-14T13:43:13;10.20;99.90
19829;DHT22;10075;50.924;4.396;2022-11-14T13:45:50;10.20;99.90
19829;DHT22;10075;50.924;4.396;2022-11-14T13:48:52;10.20;99.90
19829;DHT22;10075;50.924;4.396;2022-11-14T13:51:23;10.30;99.90
19829;DHT22;10075;50.924;4.396;2022-11-14T13:53:51;10.30;99.90
19829;DHT22;10075;50.924;4.396;2022-11-14T13:56:29;10.20;99.90
19829;DHT22;10075;50.924;4.396;2022-11-14T13:59:31;10.30;99.90
19829;DHT22;10075;50.924;4.396;2022-11-14T14:02:18;10.30;99.90
19829;DHT22;10075;50.924;4.396;2022-11-14T14:04:52;10.10;99.90
19829;DHT22;10075;50.924;4.396;2022-11-14T14:07:32;10.10;99.90
19829;DHT22;10075;50.924;4.396;2022-11-14T14:10:07;10.10;99.90
19829;DHT22;10075;50.924;4.396;2022-11-14T14:12:49;10.00;99.90
19829;DHT22;10075;50.924;4.396;2022-11-14T14:15:24;10.10;99.90
19829;DHT22;10075;50.924;4.396;2022-11-14T14:18:04;10.10;99.90
19829;DHT22;10075;50.924;4.396;2022-11-14T14:20:42;10.10;99.90
19829;DHT22;10075;50.924;4.396;2022-11-14T14:23:23;10.00;99.90
19829;DHT22;10075;50.924;4.396;2022-11-14T14:25:59;10.00;99.90
19829;DHT22;10075;50.924;4.396;2022-11-14T14:28:38;9.90;99.90
19829;DHT22;10075;50.924;4.396;2022-11-14T14:31:11;9.90;99.90
19829;DHT22;10075;50.924;4.396;2022-11-14T14:33:43;9.90;99.90
19829;DHT22;10075;50.924;4.396;2022-11-14T14:36:19;9.90;99.90
19829;DHT22;10075;50.924;4.396;2022-11-14T14:38:47;9.90;99.90
19829;DHT22;10075;50.924;4.396;2022-11-14T14:41:15;9.90;99.90
19829;DHT22;10075;50.924;4.396;2022-11-14T14:43:50;9.90;99.90
19829;DHT22;10075;50.924;4.396;2022-11-14T14:46:26;9.90;99.90
19829;DHT22;10075;50.924;4.396;2022-11-14T14:48:55;9.80;99.90
19829;DHT22;10075;50.924;4.396;2022-11-14T14:51:30;9.90;99.90
19829;DHT22;10075;50.924;4.396;2022-11-14T14:53:58;9.90;99.90
19829;DHT22;10075;50.924;4.396;2022-11-14T14:56:26;9.90;99.90
19829;DHT22;10075;50.924;4.396;2022-11-14T14:58:53;9.80;99.90
19829;DHT22;10075;50.924;4.396;2022-11-14T15:01:22;9.90;99.90
19829;DHT22;10075;50.924;4.396;2022-11-14T15:03:53;9.80;99.90
19829;DHT22;10075;50.924;4.396;2022-11-14T15:06:27;9.80;99.90
19829;DHT22;10075;50.924;4.396;2022-11-14T15:08:56;9.70;99.90
19829;DHT22;10075;50.924;4.396;2022-11-14T15:11:26;9.60;99.90
19829;DHT22;10075;50.924;4.396;2022-11-14T15:13:55;9.70;99.90
19829;DHT22;10075;50.924;4.396;2022-11-14T15:16:23;9.60;99.90
19829;DHT22;10075;50.924;4.396;2022-11-14T15:18:52;9.60;99.90
19829;DHT22;10075;50.924;4.396;2022-11-14T15:21:27;9.70;99.90
19829;DHT22;10075;50.924;4.396;2022-11-14T15:23:59;9.80;99.90
19829;DHT22;10075;50.924;4.396;2022-11-14T15:26:28;9.80;99.90
19829;DHT22;10075;50.924;4.396;2022-11-14T15:29:05;9.80;99.90
19829;DHT22;10075;50.924;4.396;2022-11-14T15:31:34;9.70;99.90
19829;DHT22;10075;50.924;4.396;2022-11-14T15:34:04;9.60;99.90
19829;DHT22;10075;50.924;4.396;2022-11-14T15:36:32;9.50;99.90
19829;DHT22;10075;50.924;4.396;2022-11-14T15:39:02;9.50;99.90
19829;DHT22;10075;50.924;4.396;2022-11-14T15:41:31;9.50;99.90
19829;DHT22;10075;50.924;4.396;2022-11-14T15:43:58;9.40;99.90
19829;DHT22;10075;50.924;4.396;2022-11-14T15:46:45;9.50;99.90
19829;DHT22;10075;50.924;4.396;2022-11-14T15:49:22;9.40;99.90
19829;DHT22;10075;50.924;4.396;2022-11-14T15:51:54;9.30;99.90
19829;DHT22;10075;50.924;4.396;2022-11-14T15:54:25;9.30;99.90
19829;DHT22;10075;50.924;4.396;2022-11-14T15:56:53;9.30;99.90
19829;DHT22;10075;50.924;4.396;2022-11-14T15:59:21;9.30;99.90
19829;DHT22;10075;50.924;4.396;2022-11-14T16:01:51;9.30;99.90
19829;DHT22;10075;50.924;4.396;2022-11-14T16:04:20;9.30;99.90
19829;DHT22;10075;50.924;4.396;2022-11-14T16:06:47;9.40;99.90
19829;DHT22;10075;50.924;4.396;2022-11-14T16:09:17;9.40;99.90
19829;DHT22;10075;50.924;4.396;2022-11-14T16:11:45;9.50;99.90
19829;DHT22;10075;50.924;4.396;2022-11-14T16:14:13;9.60;99.90
19829;DHT22;10075;50.924;4.396;2022-11-14T16:16:40;9.60;99.90
19829;DHT22;10075;50.924;4.396;2022-11-14T16:19:10;9.50;99.90